sensor_id;sensor_type;location;lat;lon;timestamp;pressure;altitude;pressure_sealevel;temperature;humidity
49451;BME280;35336;48.400;10.886;2023-06-04T00:00:07;96229.47;;;14.80;54.93
49451;BME280;35336;48.400;10.886;2023-06-04T00:00:23;96229.47;;;14.80;55.08
49451;BME280;35336;48.400;10.886;2023-06-04T00:00:38;96242.81;;;14.87;55.04
49451;BME280;35336;48.400;10.886;2023-06-04T00:00:56;96240.38;;;14.85;54.95
49451;BME280;35336;48.400;10.886;2023-06-04T00:01:11;96241.16;;;14.86;54.63
49451;BME280;35336;48.400;10.886;2023-06-04T00:01:26;96230.53;;;14.79;54.55
49451;BME280;35336;48.400;10.886;2023-06-04T00:01:42;96230.75;;;14.77;54.45
49451;BME280;35336;48.400;10.886;2023-06-04T00:01:57;96233.59;;;14.83;54.58
49451;BME280;35336;48.400;10.886;2023-06-04T00:02:12;96245.06;;;14.90;54.14
49451;BME280;35336;48.400;10.886;2023-06-04T00:02:28;96226.41;;;14.76;54.24
49451;BME280;35336;48.400;10.886;2023-06-04T00:02:43;96231.47;;;14.85;54.07
49451;BME280;35336;48.400;10.886;2023-06-04T00:02:58;96240.38;;;14.85;53.91
49451;BME280;35336;48.400;10.886;2023-06-04T00:03:14;96240.13;;;14.87;53.83
49451;BME280;35336;48.400;10.886;2023-06-04T00:03:30;96240.94;;;14.87;53.97
49451;BME280;35336;48.400;10.886;2023-06-04T00:03:45;96246.31;;;14.87;53.62
49451;BME280;35336;48.400;10.886;2023-06-04T00:04:03;96240.38;;;14.85;53.75
49451;BME280;35336;48.400;10.886;2023-06-04T00:04:18;96236.03;;;14.84;53.91
49451;BME280;35336;48.400;10.886;2023-06-04T00:04:35;96238.72;;;14.84;53.83
49451;BME280;35336;48.400;10.886;2023-06-04T00:04:53;96222.31;;;14.74;53.92
49451;BME280;35336;48.400;10.886;2023-06-04T00:05:08;96237.50;;;14.80;53.99
49451;BME280;35336;48.400;10.886;2023-06-04T00:05:24;96237.50;;;14.80;54.05
49451;BME280;35336;48.400;10.886;2023-06-04T00:05:41;96225.47;;;14.71;53.85
49451;BME280;35336;48.400;10.886;2023-06-04T00:05:56;96238.34;;;14.81;54.17
49451;BME280;35336;48.400;10.886;2023-06-04T00:06:12;96238.78;;;14.77;54.28
49451;BME280;35336;48.400;10.886;2023-06-04T00:06:29;96248.50;;;14.79;54.31
49451;BME280;35336;48.400;10.886;2023-06-04T00:06:44;96237.97;;;14.77;54.30
49451;BME280;35336;48.400;10.886;2023-06-04T00:07:00;96246.84;;;14.77;54.35
49451;BME280;35336;48.400;10.886;2023-06-04T00:07:18;96248.13;;;14.75;53.90
49451;BME280;35336;48.400;10.886;2023-06-04T00:07:33;96231.72;;;14.65;54.29
49451;BME280;35336;48.400;10.886;2023-06-04T00:07:49;96245.28;;;14.70;54.29
49451;BME280;35336;48.400;10.886;2023-06-04T00:08:04;96230.28;;;14.62;54.41
49451;BME280;35336;48.400;10.886;2023-06-04T00:08:19;96243.66;;;14.69;54.18
49451;BME280;35336;48.400;10.886;2023-06-04T00:08:35;96248.84;;;14.64;54.10
49451;BME280;35336;48.400;10.886;2023-06-04T00:08:50;96248.22;;;14.68;53.93
49451;BME280;35336;48.400;10.886;2023-06-04T00:09:05;96245.13;;;14.65;53.82
49451;BME280;35336;48.400;10.886;2023-06-04T00:09:21;96244.09;;;14.66;53.79
49451;BME280;35336;48.400;10.886;2023-06-04T00:09:36;96227.22;;;14.58;53.55
49451;BME280;35336;48.400;10.886;2023-06-04T00:09:54;96245.28;;;14.70;53.68
49451;BME280;35336;48.400;10.886;2023-06-04T00:10:10;96238.72;;;14.66;53.50
49451;BME280;35336;48.400;10.886;2023-06-04T00:10:27;96250.06;;;14.68;53.51
49451;BME280;35336;48.400;10.886;2023-06-04T00:10:43;96245.94;;;14.65;53.39
49451;BME280;35336;48.400;10.886;2023-06-04T00:10:58;96232.97;;;14.62;53.92
49451;BME280;35336;48.400;10.886;2023-06-04T00:11:13;96246.38;;;14.62;53.92
49451;BME280;35336;48.400;10.886;2023-06-04T00:11:28;96242.06;;;14.61;53.55
49451;BME280;35336;48.400;10.886;2023-06-04T00:11:48;96246.59;;;14.60;53.65
49451;BME280;35336;48.400;10.886;2023-06-04T00:12:04;96236.34;;;14.57;53.51
49451;BME280;35336;48.400;10.886;2023-06-04T00:12:19;96249.88;;;14.63;53.53
49451;BME280;35336;48.400;10.886;2023-06-04T00:12:35;96251.53;;;14.64;53.57
49451;BME280;35336;48.400;10.886;2023-06-04T00:12:51;96247.66;;;14.59;53.17
49451;BME280;35336;48.400;10.886;2023-06-04T00:13:09;96246.84;;;14.59;53.18
49451;BME280;35336;48.400;10.886;2023-06-04T00:13:24;96244.16;;;14.59;53.18
49451;BME280;35336;48.400;10.886;2023-06-04T00:13:39;96244.38;;;14.57;53.28
49451;BME280;35336;48.400;10.886;2023-06-04T00:13:55;96240.06;;;14.56;53.31
49451;BME280;35336;48.400;10.886;2023-06-04T00:14:10;96242.75;;;14.56;53.22
49451;BME280;35336;48.400;10.886;2023-06-04T00:14:30;96236.41;;;14.51;53.47
49451;BME280;35336;48.400;10.886;2023-06-04T00:14:45;96230.19;;;14.50;53.56
49451;BME280;35336;48.400;10.886;2023-06-04T00:15:03;96239.59;;;14.59;53.39
49451;BME280;35336;48.400;10.886;2023-06-04T00:15:21;96241.09;;;14.55;52.91
49451;BME280;35336;48.400;10.886;2023-06-04T00:15:41;96244.97;;;14.59;53.27
49451;BME280;35336;48.400;10.886;2023-06-04T00:15:56;96238.78;;;14.59;52.88
49451;BME280;35336;48.400;10.886;2023-06-04T00:16:12;96241.25;;;14.60;53.07
49451;BME280;35336;48.400;10.886;2023-06-04T00:16:28;96242.44;;;14.65;53.13
49451;BME280;35336;48.400;10.886;2023-06-04T00:16:43;96240.81;;;14.64;53.13
49451;BME280;35336;48.400;10.886;2023-06-04T00:16:58;96230.50;;;14.60;53.03
49451;BME280;35336;48.400;10.886;2023-06-04T00:17:16;96248.25;;;14.61;52.73
49451;BME280;35336;48.400;10.886;2023-06-04T00:17:31;96242.50;;;14.58;52.97
49451;BME280;35336;48.400;10.886;2023-06-04T00:17:47;96243.31;;;14.58;53.28
49451;BME280;35336;48.400;10.886;2023-06-04T00:18:02;96235.25;;;14.58;53.22
49451;BME280;35336;48.400;10.886;2023-06-04T00:18:17;96225.00;;;14.55;53.16
49451;BME280;35336;48.400;10.886;2023-06-04T00:18:33;96238.31;;;14.62;53.29
49451;BME280;35336;48.400;10.886;2023-06-04T00:18:58;96249.88;;;14.63;52.94
49451;BME280;35336;48.400;10.886;2023-06-04T00:19:14;96246.97;;;14.64;52.90
49451;BME280;35336;48.400;10.886;2023-06-04T00:19:29;96238.53;;;14.67;52.58
49451;BME280;35336;48.400;10.886;2023-06-04T00:19:44;96241.19;;;14.67;52.45
49451;BME280;35336;48.400;10.886;2023-06-04T00:20:02;96239.09;;;14.69;53.01
49451;BME280;35336;48.400;10.886;2023-06-04T00:20:18;96244.25;;;14.71;52.63
49451;BME280;35336;48.400;10.886;2023-06-04T00:20:36;96231.28;;;14.68;52.40
49451;BME280;35336;48.400;10.886;2023-06-04T00:20:51;96241.78;;;14.69;52.63
49451;BME280;35336;48.400;10.886;2023-06-04T00:21:06;96242.38;;;14.71;52.34
49451;BME280;35336;48.400;10.886;2023-06-04T00:21:24;96238.88;;;14.71;52.87
49451;BME280;35336;48.400;10.886;2023-06-04T00:21:44;96240.75;;;14.70;52.64
49451;BME280;35336;48.400;10.886;2023-06-04T00:21:59;96231.72;;;14.65;52.61
49451;BME280;35336;48.400;10.886;2023-06-04T00:22:15;96248.59;;;14.72;52.67
49451;BME280;35336;48.400;10.886;2023-06-04T00:22:30;96244.25;;;14.71;52.43
49451;BME280;35336;48.400;10.886;2023-06-04T00:22:45;96249.63;;;14.71;52.48
49451;BME280;35336;48.400;10.886;2023-06-04T00:23:01;96241.19;;;14.67;52.82
49451;BME280;35336;48.400;10.886;2023-06-04T00:23:16;96242.16;;;14.73;52.40
49451;BME280;35336;48.400;10.886;2023-06-04T00:23:31;96241.56;;;14.71;52.54
49451;BME280;35336;48.400;10.886;2023-06-04T00:23:46;96240.75;;;14.70;52.06
49451;BME280;35336;48.400;10.886;2023-06-04T00:24:04;96234.69;;;14.56;52.30
49451;BME280;35336;48.400;10.886;2023-06-04T00:24:20;96240.19;;;14.61;52.50
49451;BME280;35336;48.400;10.886;2023-06-04T00:24:37;96244.53;;;14.63;52.62
49451;BME280;35336;48.400;10.886;2023-06-04T00:24:53;96231.78;;;14.58;52.37
49451;BME280;35336;48.400;10.886;2023-06-04T00:25:11;96241.25;;;14.60;52.16
49451;BME280;35336;48.400;10.886;2023-06-04T00:25:26;96234.69;;;14.56;52.53
49451;BME280;35336;48.400;10.886;2023-06-04T00:25:41;96247.22;;;14.63;52.44
49451;BME280;35336;48.400;10.886;2023-06-04T00:25:57;96239.03;;;14.57;52.71
49451;BME280;35336;48.400;10.886;2023-06-04T00:26:12;96246.69;;;14.54;52.50
49451;BME280;35336;48.400;10.886;2023-06-04T00:26:27;96242.81;;;14.50;52.84
49451;BME280;35336;48.400;10.886;2023-06-04T00:26:47;96240.19;;;14.43;52.45
49451;BME280;35336;48.400;10.886;2023-06-04T00:27:02;96242.56;;;14.51;52.54
49451;BME280;35336;48.400;10.886;2023-06-04T00:27:20;96242.19;;;14.48;52.59
49451;BME280;35336;48.400;10.886;2023-06-04T00:27:36;96247.19;;;14.44;52.61
49451;BME280;35336;48.400;10.886;2023-06-04T00:27:56;96233.59;;;14.45;52.32
49451;BME280;35336;48.400;10.886;2023-06-04T00:28:11;96236.47;;;14.44;52.62
49451;BME280;35336;48.400;10.886;2023-06-04T00:28:29;96248.97;;;14.50;52.45
49451;BME280;35336;48.400;10.886;2023-06-04T00:28:46;96248.41;;;14.48;52.83
49451;BME280;35336;48.400;10.886;2023-06-04T00:29:02;96244.31;;;14.45;52.45
49451;BME280;35336;48.400;10.886;2023-06-04T00:29:22;96248.84;;;14.45;52.51
49451;BME280;35336;48.400;10.886;2023-06-04T00:29:37;96243.72;;;14.43;52.61
49451;BME280;35336;48.400;10.886;2023-06-04T00:29:53;96247.19;;;14.44;52.78
49451;BME280;35336;48.400;10.886;2023-06-04T00:30:11;96245.34;;;14.44;52.72
49451;BME280;35336;48.400;10.886;2023-06-04T00:30:30;96237.34;;;14.38;52.80
49451;BME280;35336;48.400;10.886;2023-06-04T00:30:47;96244.38;;;14.39;53.02
49451;BME280;35336;48.400;10.886;2023-06-04T00:31:06;96238.41;;;14.37;52.66
49451;BME280;35336;48.400;10.886;2023-06-04T00:31:23;96246.16;;;14.45;52.71
49451;BME280;35336;48.400;10.886;2023-06-04T00:31:38;96243.47;;;14.45;52.81
49451;BME280;35336;48.400;10.886;2023-06-04T00:31:54;96244.75;;;14.42;52.94
49451;BME280;35336;48.400;10.886;2023-06-04T00:32:09;96238.34;;;14.43;52.82
49451;BME280;35336;48.400;10.886;2023-06-04T00:32:26;96244.38;;;14.39;53.08
49451;BME280;35336;48.400;10.886;2023-06-04T00:32:42;96249.72;;;14.39;53.23
49451;BME280;35336;48.400;10.886;2023-06-04T00:32:57;96241.09;;;14.37;53.08
49451;BME280;35336;48.400;10.886;2023-06-04T00:33:12;96232.88;;;14.32;53.13
49451;BME280;35336;48.400;10.886;2023-06-04T00:33:27;96240.28;;;14.36;53.12
49451;BME280;35336;48.400;10.886;2023-06-04T00:33:43;96248.75;;;14.33;53.32
49451;BME280;35336;48.400;10.886;2023-06-04T00:33:58;96244.88;;;14.29;53.41
49451;BME280;35336;48.400;10.886;2023-06-04T00:34:13;96229.97;;;14.14;53.22
49451;BME280;35336;48.400;10.886;2023-06-04T00:34:29;96240.03;;;14.19;53.98
49451;BME280;35336;48.400;10.886;2023-06-04T00:34:52;96250.78;;;14.19;53.90
49451;BME280;35336;48.400;10.886;2023-06-04T00:35:07;96244.56;;;14.19;53.98
49451;BME280;35336;48.400;10.886;2023-06-04T00:35:25;96239.00;;;14.20;53.60
49451;BME280;35336;48.400;10.886;2023-06-04T00:35:40;96245.41;;;14.19;53.74
49451;BME280;35336;48.400;10.886;2023-06-04T00:36:00;96247.25;;;14.19;53.67
49451;BME280;35336;48.400;10.886;2023-06-04T00:36:18;96232.72;;;14.08;53.96
49451;BME280;35336;48.400;10.886;2023-06-04T00:36:36;96240.56;;;14.09;53.95
49451;BME280;35336;48.400;10.886;2023-06-04T00:36:51;96245.69;;;14.11;53.86
49451;BME280;35336;48.400;10.886;2023-06-04T00:37:06;96235.25;;;14.03;53.99
49451;BME280;35336;48.400;10.886;2023-06-04T00:37:22;96242.41;;;14.09;53.89
49451;BME280;35336;48.400;10.886;2023-06-04T00:37:37;96228.25;;;14.02;54.28
49451;BME280;35336;48.400;10.886;2023-06-04T00:37:55;96244.03;;;14.10;54.20
49451;BME280;35336;48.400;10.886;2023-06-04T00:38:10;96243.63;;;14.13;54.40
49451;BME280;35336;48.400;10.886;2023-06-04T00:38:25;96243.63;;;14.13;54.31
49451;BME280;35336;48.400;10.886;2023-06-04T00:38:41;96244.66;;;14.12;54.66
49451;BME280;35336;48.400;10.886;2023-06-04T00:38:56;96242.16;;;14.10;54.74
49451;BME280;35336;48.400;10.886;2023-06-04T00:39:11;96234.81;;;14.06;55.05
49451;BME280;35336;48.400;10.886;2023-06-04T00:39:27;96243.25;;;14.09;55.08
49451;BME280;35336;48.400;10.886;2023-06-04T00:39:42;96242.25;;;14.04;54.79
49451;BME280;35336;48.400;10.886;2023-06-04T00:39:59;96250.66;;;14.07;54.37
49451;BME280;35336;48.400;10.886;2023-06-04T00:40:14;96245.09;;;14.09;54.58
49451;BME280;35336;48.400;10.886;2023-06-04T00:40:29;96241.78;;;14.07;55.04
49451;BME280;35336;48.400;10.886;2023-06-04T00:40:44;96249.63;;;14.08;54.83
49451;BME280;35336;48.400;10.886;2023-06-04T00:41:00;96242.16;;;14.10;54.95
49451;BME280;35336;48.400;10.886;2023-06-04T00:41:15;96238.91;;;14.08;54.74
49451;BME280;35336;48.400;10.886;2023-06-04T00:41:33;96252.91;;;14.10;54.53
49451;BME280;35336;48.400;10.886;2023-06-04T00:41:48;96253.13;;;14.09;54.64
49451;BME280;35336;48.400;10.886;2023-06-04T00:42:03;96240.59;;;14.03;55.04
49451;BME280;35336;48.400;10.886;2023-06-04T00:42:19;96244.28;;;14.08;54.98
49451;BME280;35336;48.400;10.886;2023-06-04T00:42:36;96243.63;;;14.13;55.21
49451;BME280;35336;48.400;10.886;2023-06-04T00:42:54;96230.03;;;14.08;54.75
49451;BME280;35336;48.400;10.886;2023-06-04T00:43:09;96236.81;;;14.10;54.82
49451;BME280;35336;48.400;10.886;2023-06-04T00:43:29;96241.13;;;14.11;54.97
49451;BME280;35336;48.400;10.886;2023-06-04T00:43:44;96246.66;;;14.17;55.15
49451;BME280;35336;48.400;10.886;2023-06-04T00:43:59;96232.28;;;14.11;54.75
49451;BME280;35336;48.400;10.886;2023-06-04T00:44:17;96231.06;;;14.07;55.04
49451;BME280;35336;48.400;10.886;2023-06-04T00:44:32;96229.06;;;14.02;54.99
49451;BME280;35336;48.400;10.886;2023-06-04T00:44:47;96252.31;;;14.08;55.13
49451;BME280;35336;48.400;10.886;2023-06-04T00:45:05;96239.56;;;14.04;55.17
49451;BME280;35336;48.400;10.886;2023-06-04T00:45:21;96240.59;;;14.03;55.64
49451;BME280;35336;48.400;10.886;2023-06-04T00:45:36;96238.53;;;14.05;55.82
49451;BME280;35336;48.400;10.886;2023-06-04T00:45:54;96223.91;;;14.01;55.80
49451;BME280;35336;48.400;10.886;2023-06-04T00:46:10;96237.88;;;14.09;56.53
49451;BME280;35336;48.400;10.886;2023-06-04T00:46:28;96235.25;;;14.03;56.58
49451;BME280;35336;48.400;10.886;2023-06-04T00:46:44;96239.34;;;14.05;56.56
49451;BME280;35336;48.400;10.886;2023-06-04T00:46:59;96232.63;;;13.96;56.26
49451;BME280;35336;48.400;10.886;2023-06-04T00:47:16;96249.69;;;14.02;56.34
49451;BME280;35336;48.400;10.886;2023-06-04T00:47:32;96242.09;;;13.98;56.26
49451;BME280;35336;48.400;10.886;2023-06-04T00:47:47;96239.19;;;14.00;57.04
49451;BME280;35336;48.400;10.886;2023-06-04T00:48:05;96246.56;;;14.05;56.70
49451;BME280;35336;48.400;10.886;2023-06-04T00:48:20;96244.09;;;14.03;56.83
49451;BME280;35336;48.400;10.886;2023-06-04T00:48:36;96243.91;;;14.05;57.29
49451;BME280;35336;48.400;10.886;2023-06-04T00:48:51;96252.50;;;14.07;57.15
49451;BME280;35336;48.400;10.886;2023-06-04T00:49:09;96239.09;;;14.07;57.22
49451;BME280;35336;48.400;10.886;2023-06-04T00:49:24;96235.69;;;14.00;57.47
49451;BME280;35336;48.400;10.886;2023-06-04T00:49:42;96228.31;;;13.95;57.57
49451;BME280;35336;48.400;10.886;2023-06-04T00:49:57;96232.41;;;13.97;57.01
49451;BME280;35336;48.400;10.886;2023-06-04T00:50:13;96246.56;;;14.05;56.93
49451;BME280;35336;48.400;10.886;2023-06-04T00:50:29;96246.56;;;14.05;57.21
49451;BME280;35336;48.400;10.886;2023-06-04T00:50:44;96236.94;;;13.97;56.91
49451;BME280;35336;48.400;10.886;2023-06-04T00:51:00;96245.09;;;14.09;56.14
49451;BME280;35336;48.400;10.886;2023-06-04T00:51:18;96241.38;;;14.10;56.05
49451;BME280;35336;48.400;10.886;2023-06-04T00:51:33;96239.72;;;14.09;55.53
49451;BME280;35336;48.400;10.886;2023-06-04T00:51:49;96240.31;;;14.11;55.58
49451;BME280;35336;48.400;10.886;2023-06-04T00:52:05;96246.50;;;14.11;55.58
49451;BME280;35336;48.400;10.886;2023-06-04T00:52:20;96243.00;;;14.11;55.66
49451;BME280;35336;48.400;10.886;2023-06-04T00:52:36;96248.97;;;14.13;55.56
49451;BME280;35336;48.400;10.886;2023-06-04T00:52:51;96244.19;;;14.15;55.05
49451;BME280;35336;48.400;10.886;2023-06-04T00:53:10;96241.75;;;14.13;54.84
49451;BME280;35336;48.400;10.886;2023-06-04T00:53:25;96234.97;;;14.11;54.91
49451;BME280;35336;48.400;10.886;2023-06-04T00:53:41;96229.66;;;14.04;54.94
49451;BME280;35336;48.400;10.886;2023-06-04T00:53:56;96247.09;;;14.13;55.03
49451;BME280;35336;48.400;10.886;2023-06-04T00:54:16;96235.56;;;14.13;54.28
49451;BME280;35336;48.400;10.886;2023-06-04T00:54:31;96246.88;;;14.15;54.56
49451;BME280;35336;48.400;10.886;2023-06-04T00:54:49;96238.91;;;14.08;54.62
49451;BME280;35336;48.400;10.886;2023-06-04T00:55:14;96245.53;;;14.06;55.31
49451;BME280;35336;48.400;10.886;2023-06-04T00:55:29;96249.03;;;14.06;54.84
49451;BME280;35336;48.400;10.886;2023-06-04T00:55:47;96247.16;;;14.07;54.74
49451;BME280;35336;48.400;10.886;2023-06-04T00:56:03;96243.44;;;14.08;54.45
49451;BME280;35336;48.400;10.886;2023-06-04T00:56:18;96251.72;;;14.06;54.46
49451;BME280;35336;48.400;10.886;2023-06-04T00:56:35;96248.66;;;14.03;54.36
49451;BME280;35336;48.400;10.886;2023-06-04T00:56:53;96253.41;;;14.01;54.85
49451;BME280;35336;48.400;10.886;2023-06-04T00:57:08;96249.31;;;13.98;54.67
49451;BME280;35336;48.400;10.886;2023-06-04T00:57:23;96251.38;;;13.96;54.38
49451;BME280;35336;48.400;10.886;2023-06-04T00:57:39;96250.78;;;13.94;54.50
49451;BME280;35336;48.400;10.886;2023-06-04T00:57:59;96247.50;;;13.92;55.00
49451;BME280;35336;48.400;10.886;2023-06-04T00:58:17;96243.84;;;13.86;55.02
49451;BME280;35336;48.400;10.886;2023-06-04T00:58:41;96251.22;;;13.91;54.77
49451;BME280;35336;48.400;10.886;2023-06-04T00:58:56;96248.31;;;13.92;55.04
49451;BME280;35336;48.400;10.886;2023-06-04T00:59:14;96243.69;;;13.81;54.68
49451;BME280;35336;48.400;10.886;2023-06-04T00:59:32;96253.09;;;13.90;54.88
49451;BME280;35336;48.400;10.886;2023-06-04T00:59:48;96245.06;;;13.90;54.51
49451;BME280;35336;48.400;10.886;2023-06-04T01:00:07;96250.84;;;13.87;54.58
49451;BME280;35336;48.400;10.886;2023-06-04T01:00:22;96246.09;;;13.89;54.74
49451;BME280;35336;48.400;10.886;2023-06-04T01:00:38;96238.72;;;13.85;54.34
49451;BME280;35336;48.400;10.886;2023-06-04T01:00:56;96246.25;;;13.94;54.35
49451;BME280;35336;48.400;10.886;2023-06-04T01:01:20;96236.19;;;13.90;54.35
49451;BME280;35336;48.400;10.886;2023-06-04T01:01:55;96253.47;;;13.94;54.04
49451;BME280;35336;48.400;10.886;2023-06-04T01:02:15;96253.69;;;13.92;53.96
49451;BME280;35336;48.400;10.886;2023-06-04T01:02:32;96256.97;;;13.94;54.32
49451;BME280;35336;48.400;10.886;2023-06-04T01:02:52;96249.97;;;13.93;54.02
49451;BME280;35336;48.400;10.886;2023-06-04T01:03:11;96253.09;;;13.90;54.51
49451;BME280;35336;48.400;10.886;2023-06-04T01:03:30;96245.25;;;13.89;54.47
49451;BME280;35336;48.400;10.886;2023-06-04T01:03:52;96242.03;;;13.80;54.63
49451;BME280;35336;48.400;10.886;2023-06-04T01:04:14;96245.75;;;13.79;54.84
49451;BME280;35336;48.400;10.886;2023-06-04T01:04:35;96252.97;;;13.78;54.92
49451;BME280;35336;48.400;10.886;2023-06-04T01:05:06;96248.69;;;13.71;54.55
49451;BME280;35336;48.400;10.886;2023-06-04T01:05:33;96248.31;;;13.67;54.97
49451;BME280;35336;48.400;10.886;2023-06-04T01:05:58;96252.88;;;13.66;54.72
49451;BME280;35336;48.400;10.886;2023-06-04T01:06:52;96241.81;;;13.56;54.78
49451;BME280;35336;48.400;10.886;2023-06-04T01:07:09;96248.38;;;13.60;55.51
49451;BME280;35336;48.400;10.886;2023-06-04T01:07:26;96255.59;;;13.60;55.49
49451;BME280;35336;48.400;10.886;2023-06-04T01:07:42;96250.47;;;13.58;55.24
49451;BME280;35336;48.400;10.886;2023-06-04T01:07:59;96239.41;;;13.48;55.66
49451;BME280;35336;48.400;10.886;2023-06-04T01:08:15;96249.84;;;13.56;55.60
49451;BME280;35336;48.400;10.886;2023-06-04T01:08:30;96238.97;;;13.51;56.03
49451;BME280;35336;48.400;10.886;2023-06-04T01:08:46;96246.13;;;13.57;55.93
49451;BME280;35336;48.400;10.886;2023-06-04T01:09:02;96253.13;;;13.58;56.13
49451;BME280;35336;48.400;10.886;2023-06-04T01:09:18;96252.09;;;13.59;55.98
49451;BME280;35336;48.400;10.886;2023-06-04T01:09:36;96250.03;;;13.61;55.80
49451;BME280;35336;48.400;10.886;2023-06-04T01:09:51;96239.34;;;13.55;55.78
49451;BME280;35336;48.400;10.886;2023-06-04T01:10:07;96246.53;;;13.61;55.50
49451;BME280;35336;48.400;10.886;2023-06-04T01:10:23;96250.47;;;13.58;55.63
49451;BME280;35336;48.400;10.886;2023-06-04T01:10:50;96251.75;;;13.49;55.66
49451;BME280;35336;48.400;10.886;2023-06-04T01:11:05;96249.06;;;13.49;55.86
49451;BME280;35336;48.400;10.886;2023-06-04T01:11:34;96238.94;;;13.58;55.63
49451;BME280;35336;48.400;10.886;2023-06-04T01:11:49;96249.66;;;13.58;55.56
49451;BME280;35336;48.400;10.886;2023-06-04T01:12:07;96247.63;;;13.53;55.57
49451;BME280;35336;48.400;10.886;2023-06-04T01:12:24;96251.25;;;13.59;55.36
49451;BME280;35336;48.400;10.886;2023-06-04T01:12:40;96255.00;;;13.58;55.62
49451;BME280;35336;48.400;10.886;2023-06-04T01:12:57;96240.63;;;13.52;56.01
49451;BME280;35336;48.400;10.886;2023-06-04T01:13:13;96239.59;;;13.53;55.89
49451;BME280;35336;48.400;10.886;2023-06-04T01:13:31;96235.50;;;13.50;55.72
49451;BME280;35336;48.400;10.886;2023-06-04T01:13:46;96254.78;;;13.59;55.65
49451;BME280;35336;48.400;10.886;2023-06-04T01:14:03;96223.78;;;13.45;55.80
49451;BME280;35336;48.400;10.886;2023-06-04T01:14:19;96253.56;;;13.55;55.75
49451;BME280;35336;48.400;10.886;2023-06-04T01:14:34;96242.69;;;13.50;56.09
49451;BME280;35336;48.400;10.886;2023-06-04T01:14:52;96252.13;;;13.53;56.03
49451;BME280;35336;48.400;10.886;2023-06-04T01:15:11;96253.78;;;13.54;56.48
49451;BME280;35336;48.400;10.886;2023-06-04T01:15:29;96247.63;;;13.53;56.62
49451;BME280;35336;48.400;10.886;2023-06-04T01:15:44;96252.13;;;13.53;56.49
49451;BME280;35336;48.400;10.886;2023-06-04T01:16:00;96249.47;;;13.53;56.41
49451;BME280;35336;48.400;10.886;2023-06-04T01:16:17;96251.34;;;13.52;56.53
49451;BME280;35336;48.400;10.886;2023-06-04T01:16:39;96246.84;;;13.46;56.49
49451;BME280;35336;48.400;10.886;2023-06-04T01:17:29;96250.28;;;13.53;56.66
49451;BME280;35336;48.400;10.886;2023-06-04T01:17:49;96254.22;;;13.50;56.77
49451;BME280;35336;48.400;10.886;2023-06-04T01:18:06;96258.34;;;13.53;56.56
49451;BME280;35336;48.400;10.886;2023-06-04T01:18:26;96244.38;;;13.44;56.82
49451;BME280;35336;48.400;10.886;2023-06-04T01:18:45;96241.69;;;13.44;57.07
49451;BME280;35336;48.400;10.886;2023-06-04T01:19:02;96254.16;;;13.57;56.87
49451;BME280;35336;48.400;10.886;2023-06-04T01:19:40;96257.47;;;13.59;57.38
49451;BME280;35336;48.400;10.886;2023-06-04T01:20:51;96264.47;;;13.60;56.81
49451;BME280;35336;48.400;10.886;2023-06-04T01:21:11;96253.56;;;13.55;56.87
49451;BME280;35336;48.400;10.886;2023-06-04T01:21:29;96262.22;;;13.57;57.39
49451;BME280;35336;48.400;10.886;2023-06-04T01:21:45;96264.88;;;13.57;57.72
49451;BME280;35336;48.400;10.886;2023-06-04T01:22:04;96257.88;;;13.56;57.57
49451;BME280;35336;48.400;10.886;2023-06-04T01:23:52;96255.03;;;13.51;58.38
49451;BME280;35336;48.400;10.886;2023-06-04T01:24:08;96253.41;;;13.50;58.46
49451;BME280;35336;48.400;10.886;2023-06-04T01:24:25;96247.66;;;13.46;58.20
49451;BME280;35336;48.400;10.886;2023-06-04T01:24:50;96252.19;;;13.46;58.56
49451;BME280;35336;48.400;10.886;2023-06-04T01:25:20;96254.63;;;13.54;58.55
49451;BME280;35336;48.400;10.886;2023-06-04T01:25:40;96261.00;;;13.53;58.58
49451;BME280;35336;48.400;10.886;2023-06-04T01:25:58;96260.78;;;13.55;58.75
49451;BME280;35336;48.400;10.886;2023-06-04T01:26:18;96254.44;;;13.49;58.47
49451;BME280;35336;48.400;10.886;2023-06-04T01:26:33;96258.97;;;13.48;58.77
49451;BME280;35336;48.400;10.886;2023-06-04T01:26:49;96260.00;;;13.47;59.08
49451;BME280;35336;48.400;10.886;2023-06-04T01:27:06;96260.00;;;13.47;58.98
49451;BME280;35336;48.400;10.886;2023-06-04T01:27:24;96253.22;;;13.45;59.13
49451;BME280;35336;48.400;10.886;2023-06-04T01:27:40;96257.97;;;13.43;59.46
49451;BME280;35336;48.400;10.886;2023-06-04T01:27:58;96256.94;;;13.44;59.50
49451;BME280;35336;48.400;10.886;2023-06-04T01:28:14;96253.66;;;13.42;59.32
49451;BME280;35336;48.400;10.886;2023-06-04T01:28:32;96255.53;;;13.34;59.42
49451;BME280;35336;48.400;10.886;2023-06-04T01:28:48;96260.47;;;13.38;59.40
49451;BME280;35336;48.400;10.886;2023-06-04T01:29:03;96252.28;;;13.32;59.13
49451;BME280;35336;48.400;10.886;2023-06-04T01:29:24;96260.50;;;13.31;58.71
49451;BME280;35336;48.400;10.886;2023-06-04T01:29:42;96251.44;;;13.32;59.07
49451;BME280;35336;48.400;10.886;2023-06-04T01:29:58;96244.91;;;13.21;59.70
49451;BME280;35336;48.400;10.886;2023-06-04T01:30:16;96257.00;;;13.30;59.63
49451;BME280;35336;48.400;10.886;2023-06-04T01:30:36;96242.41;;;13.26;60.20
49451;BME280;35336;48.400;10.886;2023-06-04T01:30:52;96254.34;;;13.30;59.89
49451;BME280;35336;48.400;10.886;2023-06-04T01:31:07;96247.31;;;13.29;60.30
49451;BME280;35336;48.400;10.886;2023-06-04T01:31:26;96255.75;;;13.33;60.58
49451;BME280;35336;48.400;10.886;2023-06-04T01:31:42;96251.50;;;13.25;60.59
49451;BME280;35336;48.400;10.886;2023-06-04T01:31:58;96256.78;;;13.32;60.29
49451;BME280;35336;48.400;10.886;2023-06-04T01:32:15;96248.53;;;13.33;60.05
49451;BME280;35336;48.400;10.886;2023-06-04T01:32:31;96244.03;;;13.27;60.10